createdAt,value
2024-05-09T00:00:58.429Z,1010
2024-05-09T00:02:15.523Z,1009.9
2024-05-09T00:03:32.523Z,1009.9
2024-05-09T00:04:49.448Z,1009.9
2024-05-09T00:06:06.418Z,1010
2024-05-09T00:07:23.471Z,1009.9
2024-05-09T00:08:40.547Z,1009.9
2024-05-09T00:09:57.410Z,1009.9
2024-05-09T00:11:14.605Z,1010
2024-05-09T00:12:31.429Z,1010
2024-05-09T00:13:48.471Z,1009.9
2024-05-09T00:15:05.430Z,1009.9
2024-05-09T00:16:22.454Z,1009.9
2024-05-09T00:17:39.637Z,1009.9
2024-05-09T00:18:56.639Z,1009.9
2024-05-09T00:20:17.399Z,1009.9
2024-05-09T00:21:30.634Z,1009.9
2024-05-09T00:22:47.458Z,1009.9
2024-05-09T00:24:04.434Z,1009.9
2024-05-09T00:25:21.421Z,1009.9
2024-05-09T00:26:38.530Z,1009.9
2024-05-09T00:27:55.544Z,1009.9
2024-05-09T00:29:12.491Z,1009.9
2024-05-09T00:30:32.982Z,1009.9
2024-05-09T00:31:46.567Z,1009.9
2024-05-09T00:33:03.995Z,1009.9
2024-05-09T00:34:20.540Z,1009.9
2024-05-09T00:35:37.715Z,1009.9
2024-05-09T00:36:54.501Z,1009.9
2024-05-09T00:38:11.528Z,1009.9
2024-05-09T00:39:28.444Z,1009.9
2024-05-09T00:40:45.593Z,1009.9
2024-05-09T00:42:02.494Z,1009.9
2024-05-09T00:43:19.465Z,1009.9
2024-05-09T00:44:36.520Z,1009.9
2024-05-09T00:45:53.679Z,1009.9
2024-05-09T00:47:10.591Z,1009.9
2024-05-09T00:48:27.678Z,1009.9
2024-05-09T00:49:44.611Z,1009.9
2024-05-09T00:51:01.518Z,1009.9
2024-05-09T00:52:18.447Z,1009.9
2024-05-09T00:53:35.658Z,1009.9
2024-05-09T00:54:52.460Z,1009.9
2024-05-09T00:56:09.658Z,1009.9
2024-05-09T00:57:26.625Z,1009.8
2024-05-09T00:58:43.560Z,1009.8
2024-05-09T01:00:00.530Z,1009.8
2024-05-09T01:01:17.517Z,1009.8
2024-05-09T01:02:34.630Z,1009.8
2024-05-09T01:03:51.752Z,1009.8
2024-05-09T01:05:08.504Z,1009.8
2024-05-09T01:06:25.483Z,1009.8
2024-05-09T01:07:42.579Z,1009.7
2024-05-09T01:08:59.501Z,1009.7
2024-05-09T01:10:20.893Z,1009.7
2024-05-09T01:11:33.645Z,1009.7
2024-05-09T01:12:50.564Z,1009.7
2024-05-09T01:14:07.553Z,1009.7
2024-05-09T01:15:24.497Z,1009.7
2024-05-09T01:16:41.515Z,1009.7
2024-05-09T01:17:58.773Z,1009.7
2024-05-09T01:19:15.780Z,1009.7
2024-05-09T01:20:39.449Z,1009.7
2024-05-09T01:21:49.495Z,1009.7
2024-05-09T01:23:06.624Z,1009.6
2024-05-09T01:24:23.498Z,1009.7
2024-05-09T01:25:40.506Z,1009.7
2024-05-09T01:26:57.516Z,1009.7
2024-05-09T01:28:14.687Z,1009.7
2024-05-09T01:29:31.610Z,1009.6
2024-05-09T01:30:48.549Z,1009.7
2024-05-09T01:32:05.814Z,1009.6
2024-05-09T01:33:22.697Z,1009.6
2024-05-09T01:34:39.529Z,1009.6
2024-05-09T01:35:56.587Z,1009.6
2024-05-09T01:37:13.657Z,1009.7
2024-05-09T01:38:30.884Z,1009.7
2024-05-09T01:39:47.540Z,1009.6
2024-05-09T01:41:04.562Z,1009.7
2024-05-09T01:42:21.645Z,1009.7
2024-05-09T01:43:38.691Z,1009.7
2024-05-09T01:44:55.611Z,1009.7
2024-05-09T01:46:12.594Z,1009.7
2024-05-09T01:47:29.788Z,1009.7
2024-05-09T01:48:46.709Z,1009.7
2024-05-09T01:50:03.732Z,1009.7
2024-05-09T01:51:20.598Z,1009.7
2024-05-09T01:52:37.579Z,1009.7
2024-05-09T01:53:54.589Z,1009.7
2024-05-09T01:55:11.636Z,1009.7
2024-05-09T01:56:28.624Z,1009.7
2024-05-09T01:57:45.653Z,1009.7
2024-05-09T01:59:02.799Z,1009.7
2024-05-09T02:00:26.187Z,1009.7
2024-05-09T02:01:54.845Z,1009.7
2024-05-09T02:02:53.711Z,1009.7
2024-05-09T02:04:10.929Z,1009.7
2024-05-09T02:05:28.099Z,1009.7
2024-05-09T02:06:44.566Z,1009.7
2024-05-09T02:08:01.665Z,1009.7
2024-05-09T02:09:18.601Z,1009.7
2024-05-09T02:10:35.695Z,1009.7
2024-05-09T02:11:52.664Z,1009.7
2024-05-09T02:13:09.579Z,1009.7
2024-05-09T02:14:26.846Z,1009.6
2024-05-09T02:15:43.778Z,1009.7
2024-05-09T02:17:00.661Z,1009.7
2024-05-09T02:18:17.770Z,1009.7
2024-05-09T02:19:34.688Z,1009.7
2024-05-09T02:20:51.641Z,1009.7
2024-05-09T02:22:08.632Z,1009.7
2024-05-09T02:23:25.796Z,1009.7
2024-05-09T02:24:42.808Z,1009.7
2024-05-09T02:25:59.681Z,1009.7
2024-05-09T02:27:16.686Z,1009.7
2024-05-09T02:28:33.637Z,1009.7
2024-05-09T02:29:50.588Z,1009.7
2024-05-09T02:31:07.618Z,1009.7
2024-05-09T02:32:24.792Z,1009.7
2024-05-09T02:33:41.740Z,1009.7
2024-05-09T02:34:58.726Z,1009.7
2024-05-09T02:36:15.619Z,1009.7
2024-05-09T02:37:32.634Z,1009.7
2024-05-09T02:38:49.651Z,1009.7
2024-05-09T02:40:09.200Z,1009.7
2024-05-09T02:41:23.785Z,1009.7
2024-05-09T02:42:40.658Z,1009.7
2024-05-09T02:43:57.647Z,1009.7
2024-05-09T02:45:14.841Z,1009.7
2024-05-09T02:46:31.739Z,1009.7
2024-05-09T02:47:48.931Z,1009.7
2024-05-09T02:49:05.674Z,1009.6
2024-05-09T02:50:26.667Z,1009.6
2024-05-09T02:51:39.651Z,1009.7
2024-05-09T02:52:56.698Z,1009.6
2024-05-09T02:54:13.764Z,1009.7
2024-05-09T02:55:30.870Z,1009.7
2024-05-09T02:56:47.669Z,1009.7
2024-05-09T02:58:04.676Z,1009.7
2024-05-09T02:59:21.959Z,1009.7
2024-05-09T03:00:40.382Z,1009.7
2024-05-09T03:01:55.681Z,1009.7
2024-05-09T03:03:13.958Z,1009.7
2024-05-09T03:04:29.704Z,1009.7
2024-05-09T03:05:47.027Z,1009.8
2024-05-09T03:07:03.685Z,1009.7
2024-05-09T03:08:20.701Z,1009.7
2024-05-09T03:09:37.836Z,1009.7
2024-05-09T03:10:54.772Z,1009.7
2024-05-09T03:12:12.007Z,1009.7
2024-05-09T03:13:28.676Z,1009.7
2024-05-09T03:14:45.669Z,1009.7
2024-05-09T03:16:02.798Z,1009.7
2024-05-09T03:17:19.795Z,1009.7
2024-05-09T03:18:36.780Z,1009.8
2024-05-09T03:19:53.701Z,1009.7
2024-05-09T03:21:10.801Z,1009.8
2024-05-09T03:22:27.723Z,1009.8
2024-05-09T03:23:44.774Z,1009.8
2024-05-09T03:25:01.681Z,1009.8
2024-05-09T03:26:18.989Z,1009.8
2024-05-09T03:27:35.703Z,1009.9
2024-05-09T03:28:52.786Z,1009.9
2024-05-09T03:30:09.932Z,1009.8
2024-05-09T03:31:27.147Z,1009.9
2024-05-09T03:32:43.964Z,1009.9
2024-05-09T03:34:00.877Z,1009.9
2024-05-09T03:35:17.817Z,1009.9
2024-05-09T03:36:34.801Z,1009.9
2024-05-09T03:37:51.709Z,1009.9
2024-05-09T03:39:08.731Z,1009.9
2024-05-09T03:40:26.776Z,1009.9
2024-05-09T03:41:42.822Z,1009.9
2024-05-09T03:42:59.711Z,1009.9
2024-05-09T03:44:16.774Z,1009.8
2024-05-09T03:45:33.765Z,1009.9
2024-05-09T03:46:50.768Z,1009.9
2024-05-09T03:48:08.019Z,1009.8
2024-05-09T03:49:24.932Z,1009.8
2024-05-09T03:51:58.740Z,1009.8
2024-05-09T03:53:15.880Z,1009.9
2024-05-09T03:54:32.744Z,1009.9
2024-05-09T03:55:49.895Z,1009.9
2024-05-09T03:57:06.788Z,1009.9
2024-05-09T03:58:23.724Z,1009.9
2024-05-09T03:59:40.830Z,1009.9
2024-05-09T04:00:57.942Z,1009.9
2024-05-09T04:02:14.953Z,1009.9
2024-05-09T04:03:31.962Z,1009.9
2024-05-09T04:04:48.928Z,1009.9
2024-05-09T04:06:05.990Z,1009.9
2024-05-09T04:07:22.819Z,1009.9
2024-05-09T04:08:39.817Z,1009.9
2024-05-09T04:09:56.768Z,1010
2024-05-09T04:11:13.855Z,1010
2024-05-09T04:12:30.817Z,1010
2024-05-09T04:13:47.849Z,1009.9
2024-05-09T04:15:04.792Z,1009.9
2024-05-09T04:16:21.940Z,1010
2024-05-09T04:17:39.146Z,1010
2024-05-09T04:18:55.871Z,1009.9
2024-05-09T04:20:21.011Z,1009.9
2024-05-09T04:21:30.070Z,1010
2024-05-09T04:22:46.917Z,1010
2024-05-09T04:24:03.850Z,1010
2024-05-09T04:25:20.796Z,1010
2024-05-09T04:26:37.878Z,1010
2024-05-09T04:27:54.865Z,1010
2024-05-09T04:29:11.795Z,1010
2024-05-09T04:30:33.994Z,1010
2024-05-09T04:31:47.299Z,1009.9
2024-05-09T04:33:03.987Z,1010
2024-05-09T04:34:20.872Z,1010
2024-05-09T04:35:38.105Z,1010
2024-05-09T04:36:54.970Z,1010
2024-05-09T04:38:11.912Z,1010
2024-05-09T04:39:28.848Z,1010
2024-05-09T04:40:46.128Z,1010
2024-05-09T04:42:02.894Z,1010
2024-05-09T04:43:19.802Z,1010.1
2024-05-09T04:44:36.883Z,1010.1
2024-05-09T04:45:57.280Z,1010
2024-05-09T04:47:15.243Z,1010
2024-05-09T04:48:31.906Z,1010.1
2024-05-09T04:49:49.001Z,1010.1
2024-05-09T04:51:08.916Z,1010.1
2024-05-09T04:52:25.930Z,1010.1
2024-05-09T04:53:43.056Z,1010.1
2024-05-09T04:54:59.852Z,1010.1
2024-05-09T04:56:16.960Z,1010.1
2024-05-09T04:57:34.065Z,1010.1
2024-05-09T04:58:50.994Z,1010.1
2024-05-09T05:00:14.283Z,1010.1
2024-05-09T05:01:24.885Z,1010.2
2024-05-09T05:02:42.131Z,1010.1
2024-05-09T05:03:59.175Z,1010.1
2024-05-09T05:05:15.904Z,1010.2
2024-05-09T05:06:32.838Z,1010.1
2024-05-09T05:07:50.028Z,1010.1
2024-05-09T05:09:06.945Z,1010.1
2024-05-09T05:10:29.358Z,1010.1
2024-05-09T05:11:40.959Z,1010.1
2024-05-09T05:12:58.142Z,1010
2024-05-09T05:14:15.996Z,1010
2024-05-09T05:15:33.173Z,1010
2024-05-09T05:16:50.088Z,1010
2024-05-09T05:18:07.217Z,1010
2024-05-09T05:19:24.186Z,1009.9
2024-05-09T05:20:41.190Z,1010
2024-05-09T05:21:57.856Z,1010
2024-05-09T05:23:15.219Z,1010
2024-05-09T05:24:31.886Z,1010
2024-05-09T05:25:49.040Z,1010
2024-05-09T05:27:06.284Z,1010
2024-05-09T05:28:23.073Z,1010
2024-05-09T05:29:40.025Z,1010
2024-05-09T05:30:57.075Z,1010
2024-05-09T05:32:14.190Z,1010
2024-05-09T05:33:31.273Z,1010
2024-05-09T05:34:47.997Z,1010
2024-05-09T05:36:04.901Z,1010
2024-05-09T05:37:22.038Z,1010
2024-05-09T05:38:39.368Z,1010
2024-05-09T05:39:56.011Z,1010
2024-05-09T05:41:12.999Z,1010
2024-05-09T05:42:32.988Z,1010
2024-05-09T05:43:49.947Z,1010
2024-05-09T05:45:09.284Z,1010
2024-05-09T05:46:24.044Z,1010.1
2024-05-09T05:47:41.290Z,1010
2024-05-09T05:48:58.060Z,1010
2024-05-09T05:50:20.873Z,1010
2024-05-09T05:51:32.443Z,1010
2024-05-09T05:52:49.002Z,1010
2024-05-09T05:54:05.918Z,1010
2024-05-09T05:55:22.954Z,1010
2024-05-09T05:56:40.185Z,1010
2024-05-09T05:57:57.087Z,1010
2024-05-09T05:59:15.275Z,1010
2024-05-09T06:00:36.963Z,1010.1
2024-05-09T06:01:51.041Z,1010.1
2024-05-09T06:03:05.330Z,1010.1
2024-05-09T06:04:22.145Z,1010.2
2024-05-09T06:05:39.055Z,1010.2
2024-05-09T06:06:56.291Z,1010.2
2024-05-09T06:08:13.123Z,1010.2
2024-05-09T06:09:30.308Z,1010.1
2024-05-09T06:10:47.256Z,1010.1
2024-05-09T06:12:04.597Z,1010.1
2024-05-09T06:13:21.072Z,1010.1
2024-05-09T06:14:38.028Z,1010.1
2024-05-09T06:15:54.955Z,1010.1
2024-05-09T06:17:12.237Z,1010.1
2024-05-09T06:18:29.448Z,1010.2
2024-05-09T06:19:46.367Z,1010.1
2024-05-09T06:21:03.994Z,1010.1
2024-05-09T06:22:21.171Z,1010
2024-05-09T06:23:38.616Z,1009.9
2024-05-09T06:24:55.112Z,1009.8
2024-05-09T06:26:12.086Z,1009.8
2024-05-09T06:27:29.070Z,1009.7
2024-05-09T06:28:49.161Z,1009.7
2024-05-09T06:30:03.760Z,1009.7
2024-05-09T06:31:19.971Z,1009.7
2024-05-09T06:32:37.251Z,1009.7
2024-05-09T06:33:56.903Z,1009.6
2024-05-09T06:35:16.631Z,1009.7
2024-05-09T06:36:32.988Z,1009.7
2024-05-09T06:37:50.262Z,1009.6
2024-05-09T06:39:07.028Z,1009.7
2024-05-09T06:40:25.592Z,1009.7
2024-05-09T06:41:41.244Z,1009.7
2024-05-09T06:42:58.200Z,1009.7
2024-05-09T06:44:15.852Z,1009.7
2024-05-09T06:45:33.094Z,1009.7
2024-05-09T06:46:50.114Z,1009.7
2024-05-09T06:48:07.359Z,1009.7
2024-05-09T06:49:24.283Z,1009.7
2024-05-09T06:50:41.130Z,1009.7
2024-05-09T06:51:58.102Z,1009.7
2024-05-09T06:53:15.433Z,1009.7
2024-05-09T06:54:32.083Z,1009.7
2024-05-09T06:55:49.237Z,1009.8
2024-05-09T06:57:06.307Z,1009.7
2024-05-09T06:58:23.067Z,1009.7
2024-05-09T06:59:40.240Z,1009.8
2024-05-09T07:00:57.124Z,1009.7
2024-05-09T07:02:14.079Z,1009.7
2024-05-09T07:03:31.265Z,1009.7
2024-05-09T07:04:48.255Z,1009.8
2024-05-09T07:06:05.135Z,1009.8
2024-05-09T07:07:22.305Z,1009.8
2024-05-09T07:08:39.116Z,1009.8
2024-05-09T07:09:56.259Z,1009.8
2024-05-09T07:11:13.230Z,1009.8
2024-05-09T07:12:30.329Z,1009.8
2024-05-09T07:13:47.177Z,1009.9
2024-05-09T07:15:04.249Z,1009.9
2024-05-09T07:16:21.099Z,1009.9
2024-05-09T07:17:38.477Z,1009.9
2024-05-09T07:18:55.300Z,1009.9
2024-05-09T07:20:16.525Z,1009.9
2024-05-09T07:21:29.083Z,1009.9
2024-05-09T07:22:46.617Z,1009.9
2024-05-09T07:24:04.142Z,1009.8
2024-05-09T07:25:23.778Z,1009.8
2024-05-09T07:26:40.619Z,1009.8
2024-05-09T07:27:57.245Z,1009.8
2024-05-09T07:29:17.003Z,1009.8
2024-05-09T07:30:33.744Z,1009.8
2024-05-09T07:31:48.450Z,1009.8
2024-05-09T07:33:05.491Z,1009.8
2024-05-09T07:34:22.325Z,1009.8
2024-05-09T07:35:39.173Z,1009.8
2024-05-09T07:36:56.236Z,1009.8
2024-05-09T07:38:13.442Z,1009.8
2024-05-09T07:39:30.376Z,1009.8
2024-05-09T07:40:47.525Z,1009.8
2024-05-09T07:42:05.162Z,1009.8
2024-05-09T07:43:22.310Z,1009.8
2024-05-09T07:44:39.193Z,1009.8
2024-05-09T07:45:57.870Z,1009.8
2024-05-09T07:47:47.828Z,1009.8
2024-05-09T07:49:13.587Z,1009.8
2024-05-09T07:53:08.548Z,1009.8
2024-05-09T07:53:41.890Z,1009.7
2024-05-09T07:54:55.419Z,1009.7
2024-05-09T07:56:12.661Z,1009.7
2024-05-09T07:57:29.366Z,1009.7
2024-05-09T07:58:46.203Z,1009.7
2024-05-09T08:00:03.292Z,1009.8
2024-05-09T08:01:20.708Z,1009.8
2024-05-09T08:02:41.967Z,1009.8
2024-05-09T08:03:56.484Z,1009.8
2024-05-09T08:05:13.385Z,1009.8
2024-05-09T08:06:30.242Z,1009.8
2024-05-09T08:07:47.190Z,1009.8
2024-05-09T08:09:07.739Z,1009.8
2024-05-09T08:10:22.077Z,1009.8
2024-05-09T08:12:55.507Z,1009.8
2024-05-09T08:14:12.307Z,1009.8
2024-05-09T08:15:29.516Z,1009.8
2024-05-09T08:16:48.195Z,1009.9
2024-05-09T08:18:05.224Z,1009.9
2024-05-09T08:19:22.245Z,1009.9
2024-05-09T08:20:39.461Z,1009.9
2024-05-09T08:21:56.255Z,1009.9
2024-05-09T08:23:13.222Z,1009.9
2024-05-09T08:24:30.238Z,1010
2024-05-09T08:25:47.407Z,1009.9
2024-05-09T08:27:04.200Z,1009.9
2024-05-09T08:28:21.359Z,1009.9
2024-05-09T08:29:38.237Z,1009.9
2024-05-09T08:30:55.298Z,1009.9
2024-05-09T08:32:12.797Z,1009.9
2024-05-09T08:33:29.805Z,1010
2024-05-09T08:34:46.581Z,1010
2024-05-09T08:36:03.319Z,1009.9
2024-05-09T08:37:22.252Z,1010
2024-05-09T08:38:37.217Z,1010
2024-05-09T08:39:54.727Z,1010
2024-05-09T08:41:12.290Z,1010
2024-05-09T08:42:29.256Z,1010.1
2024-05-09T08:43:46.583Z,1010.1
2024-05-09T08:45:03.296Z,1010
2024-05-09T08:46:20.504Z,1010
2024-05-09T08:47:37.356Z,1010
2024-05-09T08:48:54.481Z,1010.1
2024-05-09T08:50:20.163Z,1010
2024-05-09T08:51:28.363Z,1010
2024-05-09T08:52:45.224Z,1010
2024-05-09T08:54:02.325Z,1010
2024-05-09T08:55:19.587Z,1010
2024-05-09T08:56:36.245Z,1009.9
2024-05-09T08:57:53.239Z,1009.9
2024-05-09T08:59:10.417Z,1009.9
2024-05-09T09:00:29.856Z,1009.9
2024-05-09T09:01:44.419Z,1010
2024-05-09T09:03:01.304Z,1010
2024-05-09T09:04:20.984Z,1010
2024-05-09T09:05:36.325Z,1010
2024-05-09T09:06:55.638Z,1010
2024-05-09T09:08:10.367Z,1010
2024-05-09T09:09:27.400Z,1010
2024-05-09T09:10:44.333Z,1010
2024-05-09T09:12:01.428Z,1010
2024-05-09T09:13:18.476Z,1010
2024-05-09T09:14:35.352Z,1010
2024-05-09T09:15:52.453Z,1010.1
2024-05-09T09:17:09.699Z,1010.1
2024-05-09T09:18:26.605Z,1010.1
2024-05-09T09:19:43.476Z,1010.1
2024-05-09T09:21:00.721Z,1010.2
2024-05-09T09:22:28.832Z,1010.2
2024-05-09T09:23:45.417Z,1010.2
2024-05-09T09:25:02.515Z,1010.1
2024-05-09T09:26:19.595Z,1010.1
2024-05-09T09:27:36.645Z,1010.2
2024-05-09T09:28:53.398Z,1010.2
2024-05-09T09:30:18.453Z,1010.2
2024-05-09T09:31:27.614Z,1010.2
2024-05-09T09:32:44.401Z,1010.2
2024-05-09T09:34:01.639Z,1010.2
2024-05-09T09:35:18.832Z,1010.2
2024-05-09T09:36:36.481Z,1010.1
2024-05-09T09:37:53.597Z,1010.2
2024-05-09T09:39:10.709Z,1010.1
2024-05-09T09:40:31.290Z,1010.1
2024-05-09T09:41:44.499Z,1010.2
2024-05-09T09:43:01.364Z,1010.2
2024-05-09T09:44:18.875Z,1010.2
2024-05-09T09:45:36.589Z,1010.2
2024-05-09T09:46:53.346Z,1010.2
2024-05-09T09:48:10.701Z,1010.2
2024-05-09T09:49:27.553Z,1010.1
2024-05-09T09:50:44.430Z,1010.1
2024-05-09T09:52:01.440Z,1010.1
2024-05-09T09:53:18.856Z,1010.1
2024-05-09T09:54:36.642Z,1010.1
2024-05-09T09:55:54.860Z,1010.1
2024-05-09T09:57:12.770Z,1010.1
2024-05-09T09:58:29.583Z,1010.1
2024-05-09T09:59:46.461Z,1010.2
2024-05-09T10:01:03.375Z,1010.2
2024-05-09T10:02:20.484Z,1010.1
2024-05-09T10:03:37.603Z,1010.2
2024-05-09T10:04:54.544Z,1010.1
2024-05-09T10:06:11.542Z,1010.1
2024-05-09T10:07:28.393Z,1010.1
2024-05-09T10:08:45.350Z,1010.1
2024-05-09T10:10:02.768Z,1010.1
2024-05-09T10:11:20.779Z,1010.1
2024-05-09T10:12:37.494Z,1010
2024-05-09T10:13:54.807Z,1010
2024-05-09T10:15:12.560Z,1010
2024-05-09T10:16:29.784Z,1010.1
2024-05-09T10:17:49.677Z,1010.1
2024-05-09T10:19:09.552Z,1010.1
2024-05-09T10:20:32.348Z,1010.1
2024-05-09T10:21:51.412Z,1010.1
2024-05-09T10:23:12.428Z,1010
2024-05-09T10:24:29.468Z,1010
2024-05-09T10:25:46.576Z,1010
2024-05-09T10:27:03.473Z,1010
2024-05-09T10:28:20.534Z,1010
2024-05-09T10:29:37.514Z,1010
2024-05-09T10:30:54.543Z,1010
2024-05-09T10:32:11.514Z,1010
2024-05-09T10:33:28.584Z,1010
2024-05-09T10:34:45.561Z,1010
2024-05-09T10:36:02.623Z,1010
2024-05-09T10:37:19.611Z,1010
2024-05-09T10:38:36.413Z,1010
2024-05-09T10:39:53.513Z,1010
2024-05-09T10:41:10.629Z,1010
2024-05-09T10:42:27.508Z,1010.1
2024-05-09T10:43:44.580Z,1010
2024-05-09T10:45:01.624Z,1010
2024-05-09T10:46:18.526Z,1009.9
2024-05-09T10:47:35.837Z,1009.9
2024-05-09T10:48:52.637Z,1009.9
2024-05-09T10:50:15.612Z,1009.9
2024-05-09T10:51:26.423Z,1009.9
2024-05-09T10:52:43.565Z,1009.9
2024-05-09T10:54:00.510Z,1009.8
2024-05-09T10:55:17.600Z,1009.8
2024-05-09T10:56:34.760Z,1009.8
2024-05-09T10:57:51.571Z,1009.8
2024-05-09T10:59:08.671Z,1009.8
2024-05-09T11:00:30.040Z,1009.8
2024-05-09T11:01:42.661Z,1009.8
2024-05-09T11:02:59.510Z,1009.8
2024-05-09T11:04:16.926Z,1009.8
2024-05-09T11:05:37.188Z,1009.8
2024-05-09T11:06:56.925Z,1009.8
2024-05-09T11:08:12.554Z,1009.8
2024-05-09T11:09:29.573Z,1009.8
2024-05-09T11:10:46.604Z,1009.8
2024-05-09T11:12:03.610Z,1009.8
2024-05-09T11:13:20.613Z,1009.8
2024-05-09T11:14:37.598Z,1009.8
2024-05-09T11:15:54.892Z,1009.8
2024-05-09T11:17:27.018Z,1009.8
2024-05-09T11:18:44.190Z,1009.8
2024-05-09T11:20:00.632Z,1009.8
2024-05-09T11:21:17.524Z,1009.8
2024-05-09T11:22:37.403Z,1009.8
2024-05-09T11:23:55.267Z,1009.8
2024-05-09T11:25:08.654Z,1009.8
2024-05-09T11:26:25.759Z,1009.8
2024-05-09T11:27:42.996Z,1009.8
2024-05-09T11:29:00.632Z,1009.8
2024-05-09T11:30:24.113Z,1009.8
2024-05-09T11:31:37.570Z,1009.7
2024-05-09T11:32:54.611Z,1009.7
2024-05-09T11:34:11.557Z,1009.7
2024-05-09T11:35:28.708Z,1009.8
2024-05-09T11:36:46.033Z,1009.8
2024-05-09T11:38:02.693Z,1009.7
2024-05-09T11:39:19.577Z,1009.7
2024-05-09T11:40:37.005Z,1009.7
2024-05-09T11:41:54.644Z,1009.7
2024-05-09T11:43:11.633Z,1009.7
2024-05-09T11:44:28.642Z,1009.7
2024-05-09T11:45:45.583Z,1009.7
2024-05-09T11:47:02.531Z,1009.7
2024-05-09T11:48:19.925Z,1009.7
2024-05-09T11:49:37.086Z,1009.6
2024-05-09T11:50:55.013Z,1009.6
2024-05-09T11:52:11.846Z,1009.6
2024-05-09T11:53:31.308Z,1009.6
2024-05-09T11:54:45.616Z,1009.6
2024-05-09T11:56:02.916Z,1009.5
2024-05-09T11:57:19.596Z,1009.5
2024-05-09T11:58:37.090Z,1009.5
2024-05-09T11:59:54.692Z,1009.5
2024-05-09T12:01:11.739Z,1009.5
2024-05-09T12:02:28.696Z,1009.6
2024-05-09T12:03:45.712Z,1009.5
2024-05-09T12:05:02.892Z,1009.6
2024-05-09T12:06:19.783Z,1009.6
2024-05-09T12:07:39.559Z,1009.6
2024-05-09T12:08:56.804Z,1009.6
2024-05-09T12:10:14.223Z,1009.5
2024-05-09T12:11:30.814Z,1009.5
2024-05-09T12:12:47.657Z,1009.5
2024-05-09T12:14:04.685Z,1009.5
2024-05-09T12:15:21.759Z,1009.5
2024-05-09T12:16:38.937Z,1009.5
2024-05-09T12:17:57.298Z,1009.5
2024-05-09T12:19:12.725Z,1009.5
2024-05-09T12:20:34.704Z,1009.5
2024-05-09T12:21:46.816Z,1009.5
2024-05-09T12:23:04.128Z,1009.4
2024-05-09T12:24:21.867Z,1009.4
2024-05-09T12:25:38.909Z,1009.4
2024-05-09T12:26:55.692Z,1009.4
2024-05-09T12:28:12.961Z,1009.3
2024-05-09T12:29:29.650Z,1009.3
2024-05-09T12:30:46.633Z,1009.3
2024-05-09T12:32:03.751Z,1009.3
2024-05-09T12:33:21.241Z,1009.3
2024-05-09T12:34:38.641Z,1009.3
2024-05-09T12:35:55.957Z,1009.3
2024-05-09T12:37:12.892Z,1009.3
2024-05-09T12:38:29.749Z,1009.3
2024-05-09T12:39:46.680Z,1009.3
2024-05-09T12:41:03.755Z,1009.4
2024-05-09T12:42:26.386Z,1009.4
2024-05-09T12:43:37.683Z,1009.4
2024-05-09T12:44:55.141Z,1009.3
2024-05-09T12:46:14.872Z,1009.3
2024-05-09T12:47:31.862Z,1009.4
2024-05-09T12:48:49.017Z,1009.4
2024-05-09T12:50:08.143Z,1009.4
2024-05-09T12:51:22.674Z,1009.3
2024-05-09T12:52:39.790Z,1009.3
2024-05-09T12:53:56.690Z,1009.3
2024-05-09T12:55:13.708Z,1009.2
2024-05-09T12:56:30.661Z,1009.2
2024-05-09T12:57:47.782Z,1009.2
2024-05-09T12:59:04.866Z,1009.2
2024-05-09T13:00:27.387Z,1009.1
2024-05-09T13:01:42.800Z,1009.1
2024-05-09T13:03:01.049Z,1009.1
2024-05-09T13:04:25.537Z,1009.1
2024-05-09T13:05:42.830Z,1009.1
2024-05-09T13:07:00.179Z,1009.1
2024-05-09T13:08:17.749Z,1009.1
2024-05-09T13:09:35.247Z,1009.1
2024-05-09T13:10:51.837Z,1009.1
2024-05-09T13:12:08.796Z,1009
2024-05-09T13:13:25.790Z,1009
2024-05-09T13:14:42.710Z,1009
2024-05-09T13:16:00.127Z,1009
2024-05-09T13:17:16.914Z,1009
2024-05-09T13:18:33.951Z,1009
2024-05-09T13:19:50.887Z,1009
2024-05-09T13:21:07.713Z,1008.9
2024-05-09T13:22:24.779Z,1009
2024-05-09T13:23:44.731Z,1008.9
2024-05-09T13:25:02.202Z,1008.9
2024-05-09T13:26:18.946Z,1008.9
2024-05-09T13:27:35.798Z,1008.9
2024-05-09T13:28:52.754Z,1008.9
2024-05-09T13:30:14.607Z,1008.8
2024-05-09T13:31:26.908Z,1008.8
2024-05-09T13:32:43.935Z,1008.8
2024-05-09T13:34:01.118Z,1008.8
2024-05-09T13:35:18.001Z,1008.8
2024-05-09T13:36:34.874Z,1008.8
2024-05-09T13:37:51.878Z,1008.8
2024-05-09T13:39:08.958Z,1008.8
2024-05-09T13:40:29.755Z,1008.8
2024-05-09T13:41:43.214Z,1008.8
2024-05-09T13:43:00.784Z,1008.8
2024-05-09T13:44:17.806Z,1008.8
2024-05-09T13:45:34.891Z,1008.8
2024-05-09T13:46:51.925Z,1008.8
2024-05-09T13:48:09.027Z,1008.8
2024-05-09T13:49:25.999Z,1008.7
2024-05-09T13:50:42.978Z,1008.7
2024-05-09T13:52:00.998Z,1008.7
2024-05-09T13:55:42.021Z,1008.7
2024-05-09T13:56:47.548Z,1008.7
2024-05-09T13:58:11.127Z,1008.7
2024-05-09T13:59:42.816Z,1008.7
2024-05-09T14:01:00.155Z,1008.7
2024-05-09T14:02:20.445Z,1008.7
2024-05-09T14:03:52.806Z,1008.7
2024-05-09T14:05:10.172Z,1008.7
2024-05-09T14:06:28.355Z,1008.7
2024-05-09T14:07:47.719Z,1008.7
2024-05-09T14:09:19.817Z,1008.6
2024-05-09T14:10:37.078Z,1008.6
2024-05-09T14:11:55.242Z,1008.6
2024-05-09T14:13:12.059Z,1008.6
2024-05-09T14:14:29.850Z,1008.6
2024-05-09T14:15:51.437Z,1008.6
2024-05-09T14:17:11.019Z,1008.5
2024-05-09T14:18:28.014Z,1008.5
2024-05-09T14:19:44.884Z,1008.5
2024-05-09T14:21:05.002Z,1008.5
2024-05-09T14:22:21.898Z,1008.5
2024-05-09T14:23:39.079Z,1008.5
2024-05-09T14:24:56.204Z,1008.4
2024-05-09T14:26:13.863Z,1008.4
2024-05-09T14:27:31.098Z,1008.4
2024-05-09T14:28:48.632Z,1008.4
2024-05-09T14:30:12.051Z,1008.4
2024-05-09T14:31:23.943Z,1008.4
2024-05-09T14:32:40.960Z,1008.4
2024-05-09T14:34:01.055Z,1008.4
2024-05-09T14:35:20.138Z,1008.4
2024-05-09T14:36:38.011Z,1008.3
2024-05-09T14:37:54.893Z,1008.3
2024-05-09T14:39:11.984Z,1008.3
2024-05-09T14:40:35.430Z,1008.3
2024-05-09T14:41:46.091Z,1008.3
2024-05-09T14:43:03.229Z,1008.3
2024-05-09T14:44:19.888Z,1008.3
2024-05-09T14:45:36.916Z,1008.3
2024-05-09T14:46:54.122Z,1008.2
2024-05-09T14:48:12.048Z,1008.2
2024-05-09T14:49:29.050Z,1008.2
2024-05-09T14:50:47.415Z,1008.2
2024-05-09T14:52:20.170Z,1008.2
2024-05-09T14:53:38.004Z,1008.2
2024-05-09T14:54:59.887Z,1008.2
2024-05-09T14:56:11.995Z,1008.2
2024-05-09T14:57:29.018Z,1008.2
2024-05-09T14:58:46.975Z,1008.1
2024-05-09T15:00:05.298Z,1008.1
2024-05-09T15:01:21.100Z,1008.1
2024-05-09T15:02:38.328Z,1008.1
2024-05-09T15:03:56.000Z,1008.1
2024-05-09T15:05:13.329Z,1008.1
2024-05-09T15:06:31.390Z,1008.1
2024-05-09T15:07:49.142Z,1008.1
2024-05-09T15:09:05.980Z,1008.1
2024-05-09T15:10:26.430Z,1008.1
2024-05-09T15:11:40.099Z,1008.1
2024-05-09T15:12:56.989Z,1008.1
2024-05-09T15:14:14.176Z,1008.1
2024-05-09T15:15:31.290Z,1008.1
2024-05-09T15:16:48.109Z,1008.1
2024-05-09T15:18:05.484Z,1008.1
2024-05-09T15:19:22.019Z,1008.1
2024-05-09T15:20:39.325Z,1008.1
2024-05-09T15:21:57.188Z,1008
2024-05-09T15:23:14.222Z,1008
2024-05-09T15:24:31.023Z,1008
2024-05-09T15:25:48.207Z,1008
2024-05-09T15:27:05.156Z,1008
2024-05-09T15:28:22.151Z,1008
2024-05-09T15:29:39.089Z,1008
2024-05-09T15:30:56.152Z,1007.9
2024-05-09T15:32:13.073Z,1007.9
2024-05-09T15:33:30.095Z,1007.9
2024-05-09T15:34:47.050Z,1007.9
2024-05-09T15:36:04.118Z,1007.9
2024-05-09T15:37:22.127Z,1007.9
2024-05-09T15:38:39.089Z,1007.9
2024-05-09T15:39:55.977Z,1007.9
2024-05-09T15:41:13.435Z,1007.8
2024-05-09T15:42:31.036Z,1007.8
2024-05-09T15:43:48.130Z,1007.8
2024-05-09T15:45:05.234Z,1007.8
2024-05-09T15:46:22.370Z,1007.8
2024-05-09T15:47:39.157Z,1007.8
2024-05-09T15:48:56.227Z,1007.7
2024-05-09T15:50:17.284Z,1007.7
2024-05-09T15:51:30.167Z,1007.7
2024-05-09T15:52:47.037Z,1007.7
2024-05-09T15:54:04.316Z,1007.7
2024-05-09T15:55:21.233Z,1007.7
2024-05-09T15:56:38.064Z,1007.6
2024-05-09T15:57:55.021Z,1007.6
2024-05-09T15:59:12.164Z,1007.6
2024-05-09T16:00:34.346Z,1007.6
2024-05-09T16:01:46.252Z,1007.6
2024-05-09T16:03:06.533Z,1007.6
2024-05-09T16:04:23.176Z,1007.6
2024-05-09T16:05:40.434Z,1007.6
2024-05-09T16:06:57.141Z,1007.6
2024-05-09T16:08:14.010Z,1007.6
2024-05-09T16:09:34.206Z,1007.6
2024-05-09T16:10:51.325Z,1007.6
2024-05-09T16:12:08.122Z,1007.6
2024-05-09T16:13:25.087Z,1007.6
2024-05-09T16:14:42.120Z,1007.6
2024-05-09T16:15:59.249Z,1007.6
2024-05-09T16:17:16.220Z,1007.5
2024-05-09T16:18:33.098Z,1007.5
2024-05-09T16:19:50.080Z,1007.5
2024-05-09T16:21:06.987Z,1007.6
2024-05-09T16:22:24.057Z,1007.6